Terminal Aerodrome Forecast
Issued by NWS

Home | Current Version | Previous Version | Text Only | Print | Product List | Glossary On
Versions: 1 2 3 4 5 6 7 8 9 10 11 12 13 14
271
FTUS44 KEWX 131400 AAB
TAFSSF
TAF AMD
KSSF 131400Z 1314/1412 06005KT P6SM OVC015
     FM131700 14008KT P6SM SCT018 BKN050
     FM140600 15006KT P6SM OVC012=

USA.gov is the U.S. government's official web portal to all federal, state and local government web resources and services.